createdAt,value
2022-09-20T00:04:49.969Z,10.88
2022-09-20T00:09:51.434Z,10.74
2022-09-20T00:14:52.852Z,10.83
2022-09-20T00:19:54.290Z,10.86
2022-09-20T00:24:55.710Z,10.95
2022-09-20T00:29:58.766Z,11.10
2022-09-20T00:35:10.645Z,11.11
2022-09-20T00:40:17.420Z,11.08
2022-09-20T00:45:25.229Z,11.03
2022-09-20T00:50:36.808Z,11.09
2022-09-20T00:55:43.327Z,11.18
2022-09-20T01:00:46.783Z,11.04
2022-09-20T01:05:50.466Z,11.23
2022-09-20T01:10:52.955Z,11.16
2022-09-20T01:15:56.305Z,11.17
2022-09-20T01:20:59.139Z,11.15
2022-09-20T01:26:28.739Z,11.13
2022-09-20T01:31:36.417Z,11.11
2022-09-20T01:36:54.234Z,11.25
2022-09-20T01:42:02.040Z,11.16
2022-09-20T01:47:30.078Z,11.25
2022-09-20T01:53:03.380Z,10.98
2022-09-20T01:58:32.559Z,10.98
2022-09-20T02:03:36.625Z,10.90
2022-09-20T02:08:56.624Z,10.90
2022-09-20T02:14:08.180Z,10.96
2022-09-20T02:19:21.791Z,11.02
2022-09-20T02:24:33.712Z,10.88
2022-09-20T02:29:53.628Z,11.09
2022-09-20T02:35:13.551Z,11.02
2022-09-20T02:40:27.392Z,10.85
2022-09-20T02:45:43.065Z,10.89
2022-09-20T02:51:26.472Z,10.97
2022-09-20T02:56:46.800Z,10.92
2022-09-20T03:02:03.637Z,10.81
2022-09-20T03:07:37.155Z,10.81
2022-09-20T03:13:14.541Z,10.65
2022-09-20T03:18:29.297Z,10.67
2022-09-20T03:24:01.827Z,10.60
2022-09-20T03:29:37.133Z,10.65
2022-09-20T03:35:00.182Z,10.60
2022-09-20T03:40:26.069Z,10.67
2022-09-20T03:45:40.265Z,10.77
2022-09-20T03:50:41.651Z,10.70
2022-09-20T03:56:08.142Z,10.64
2022-09-20T04:01:29.848Z,10.75
2022-09-20T04:06:59.198Z,10.95
2022-09-20T04:12:24.314Z,10.78
2022-09-20T04:17:45.203Z,10.71
2022-09-20T04:22:51.410Z,10.56
2022-09-20T04:28:02.779Z,10.65
2022-09-20T04:33:26.574Z,10.65
2022-09-20T04:38:28.465Z,10.72
2022-09-20T04:43:52.298Z,10.78
2022-09-20T04:49:16.748Z,10.74
2022-09-20T04:54:18.089Z,10.93
2022-09-20T04:59:38.571Z,10.89
2022-09-20T05:05:10.670Z,10.69
2022-09-20T05:10:15.415Z,10.70
2022-09-20T05:15:47.528Z,10.83
2022-09-20T05:20:51.660Z,10.85
2022-09-20T05:26:39.035Z,10.78
2022-09-20T05:32:08.541Z,10.69
2022-09-20T05:37:44.241Z,10.62
2022-09-20T05:43:11.239Z,10.66
2022-09-20T05:48:46.836Z,10.56
2022-09-20T05:54:10.035Z,10.75
2022-09-20T05:59:38.571Z,10.74
2022-09-20T06:04:52.634Z,11.07
2022-09-20T06:10:09.300Z,10.74
2022-09-20T06:15:26.411Z,11.04
2022-09-20T06:20:39.467Z,11.10
2022-09-20T06:25:53.663Z,11.06
2022-09-20T06:30:57.222Z,11.22
2022-09-20T06:36:40.715Z,11.36
2022-09-20T06:41:43.136Z,11.29
2022-09-20T06:46:44.587Z,11.36
2022-09-20T06:51:46.849Z,11.33
2022-09-20T06:56:50.428Z,11.79
2022-09-20T07:01:52.325Z,11.78
2022-09-20T07:07:00.913Z,11.67
2022-09-20T07:12:02.570Z,11.66
2022-09-20T07:17:04.318Z,11.71
2022-09-20T07:22:05.761Z,11.97
2022-09-20T07:27:07.231Z,12.04
2022-09-20T07:32:08.692Z,11.61
2022-09-20T07:37:10.118Z,11.85
2022-09-20T07:42:12.473Z,12.10
2022-09-20T07:47:15.049Z,12.39
2022-09-20T07:52:17.552Z,12.55
2022-09-20T07:57:19.085Z,12.39
2022-09-20T08:02:20.589Z,12.46
2022-09-20T08:07:22.086Z,12.89
2022-09-20T08:17:47.362Z,13.40
2022-09-20T08:23:06.309Z,13.16
2022-09-20T08:28:10.145Z,13.46
2022-09-20T08:33:12.892Z,13.06
2022-09-20T08:43:39.762Z,13.75
2022-09-20T08:48:41.811Z,13.99
2022-09-20T08:53:49.234Z,14.23
2022-09-20T08:58:51.056Z,14.34
2022-09-20T09:03:59.230Z,13.73
2022-09-20T09:09:00.766Z,13.67
2022-09-20T09:14:27.213Z,13.72
2022-09-20T09:19:34.543Z,13.80
2022-09-20T09:24:36.041Z,13.80
2022-09-20T09:29:49.491Z,14.00
2022-09-20T09:34:51.259Z,14.14
2022-09-20T09:40:19.268Z,14.21
2022-09-20T09:45:36.066Z,14.15
2022-09-20T09:50:37.614Z,13.69
2022-09-20T09:55:53.615Z,14.15
2022-09-20T10:00:58.349Z,14.49
2022-09-20T10:06:21.466Z,14.77
2022-09-20T10:11:42.013Z,15.16
2022-09-20T10:17:11.125Z,15.24
2022-09-20T10:23:06.827Z,14.55
2022-09-20T10:28:25.147Z,14.89
2022-09-20T10:33:38.272Z,14.98
2022-09-20T10:38:50.468Z,15.36
2022-09-20T10:44:05.149Z,15.14
2022-09-20T10:49:43.064Z,15.40
2022-09-20T10:54:58.636Z,15.11
2022-09-20T11:00:18.936Z,14.84
2022-09-20T11:05:29.840Z,15.26
2022-09-20T11:10:42.993Z,15.26
2022-09-20T11:15:59.654Z,15.47
2022-09-20T11:21:24.416Z,15.62
2022-09-20T11:26:36.891Z,15.61
2022-09-20T11:31:43.409Z,15.74
2022-09-20T11:36:58.824Z,15.83
2022-09-20T11:42:02.219Z,15.33
2022-09-20T11:47:06.638Z,15.40
2022-09-20T11:52:37.205Z,15.10
2022-09-20T11:57:39.553Z,15.23
2022-09-20T12:02:53.434Z,15.51
2022-09-20T12:07:58.352Z,15.25
2022-09-20T12:13:08.445Z,15.10
2022-09-20T12:18:27.408Z,14.82
2022-09-20T12:23:40.845Z,14.39
2022-09-20T12:28:44.685Z,14.33
2022-09-20T12:33:59.244Z,14.31
2022-09-20T12:39:16.233Z,14.36
2022-09-20T12:44:23.755Z,14.40
2022-09-20T12:49:52.447Z,14.60
2022-09-20T12:54:56.369Z,14.75
2022-09-20T13:00:02.024Z,14.88
2022-09-20T13:05:03.615Z,14.89
2022-09-20T13:10:18.173Z,14.84
2022-09-20T13:15:21.830Z,14.71
2022-09-20T13:20:34.680Z,14.77
2022-09-20T13:25:39.112Z,14.75
2022-09-20T13:30:42.323Z,14.78
2022-09-20T13:35:48.277Z,14.71
2022-09-20T13:40:51.589Z,14.88
2022-09-20T13:45:58.976Z,14.84
2022-09-20T13:51:00.672Z,14.55
2022-09-20T13:56:11.623Z,14.61
2022-09-20T14:01:29.223Z,14.37
2022-09-20T14:06:31.877Z,14.55
2022-09-20T14:11:34.026Z,14.38
2022-09-20T14:16:40.965Z,14.42
2022-09-20T14:21:43.814Z,14.33
2022-09-20T14:27:02.170Z,14.33
2022-09-20T14:32:11.012Z,14.33
2022-09-20T14:37:22.290Z,14.34
2022-09-20T14:42:31.392Z,14.37
2022-09-20T14:47:38.429Z,14.36
2022-09-20T14:52:43.672Z,14.35
2022-09-20T14:57:47.105Z,14.42
2022-09-20T15:02:48.578Z,14.58
2022-09-20T15:07:50.380Z,14.54
2022-09-20T15:12:51.849Z,14.50
2022-09-20T15:17:53.323Z,14.62
2022-09-20T15:22:56.366Z,14.54
2022-09-20T15:27:59.124Z,14.64
2022-09-20T15:33:03.068Z,14.70
2022-09-20T15:38:05.637Z,14.75
2022-09-20T15:43:09.457Z,14.95
2022-09-20T15:48:11.480Z,14.71
2022-09-20T15:53:12.973Z,15.09
2022-09-20T15:58:14.864Z,14.70
2022-09-20T16:03:17.490Z,14.71
2022-09-20T16:08:19.191Z,14.65
2022-09-20T16:13:20.698Z,14.78
2022-09-20T16:18:40.896Z,14.49
2022-09-20T16:23:46.785Z,14.36
2022-09-20T16:28:49.194Z,14.21
2022-09-20T16:33:50.616Z,14.12
2022-09-20T16:38:55.285Z,13.69
2022-09-20T16:43:56.906Z,13.61
2022-09-20T16:49:01.025Z,13.43
2022-09-20T16:54:07.627Z,13.46
2022-09-20T16:59:10.698Z,13.42
2022-09-20T17:04:14.301Z,13.38
2022-09-20T17:09:16.510Z,13.51
2022-09-20T17:14:20.367Z,13.48
2022-09-20T17:19:21.875Z,13.45
2022-09-20T17:24:24.811Z,13.19
2022-09-20T17:29:27.609Z,13.18
2022-09-20T17:34:29.979Z,13.31
2022-09-20T17:39:31.442Z,13.16
2022-09-20T17:44:37.545Z,13.07
2022-09-20T17:49:40.633Z,12.92
2022-09-20T17:54:42.169Z,12.96
2022-09-20T17:59:43.689Z,12.89
2022-09-20T18:04:45.349Z,12.72
2022-09-20T18:09:47.233Z,12.59
2022-09-20T18:14:48.636Z,12.52
2022-09-20T18:19:50.030Z,12.32
2022-09-20T18:24:51.487Z,12.21
2022-09-20T18:29:52.903Z,12.21
2022-09-20T18:34:54.303Z,12.16
2022-09-20T18:39:55.734Z,11.84
2022-09-20T18:44:58.572Z,11.76
2022-09-20T18:49:59.966Z,11.87
2022-09-20T18:55:06.117Z,11.94
2022-09-20T19:00:09.402Z,11.84
2022-09-20T19:05:21.079Z,11.86
2022-09-20T19:10:59.173Z,11.80
2022-09-20T19:16:15.440Z,11.79
2022-09-20T19:21:26.154Z,11.74
2022-09-20T19:26:29.877Z,11.69
2022-09-20T19:31:33.826Z,11.53
2022-09-20T19:36:57.237Z,11.62
2022-09-20T19:42:24.471Z,11.50
2022-09-20T19:47:45.735Z,11.45
2022-09-20T19:52:47.436Z,11.41
2022-09-20T19:57:49.311Z,11.34
2022-09-20T20:02:51.074Z,11.24
2022-09-20T20:08:04.646Z,11.33
2022-09-20T20:13:25.970Z,11.38
2022-09-20T20:18:40.562Z,11.26
2022-09-20T20:24:20.600Z,11.34
2022-09-20T20:29:22.106Z,11.11
2022-09-20T20:34:24.400Z,11.04
2022-09-20T20:39:27.080Z,10.83
2022-09-20T20:44:34.982Z,10.98
2022-09-20T20:49:36.504Z,10.95
2022-09-20T20:54:37.956Z,10.73
2022-09-20T20:59:39.355Z,10.76
2022-09-20T21:04:41.140Z,10.66
2022-09-20T21:09:42.550Z,10.66
2022-09-20T21:14:44.573Z,10.67
2022-09-20T21:19:45.980Z,10.74
2022-09-20T21:24:47.377Z,10.57
2022-09-20T21:29:48.817Z,10.78
2022-09-20T21:34:50.237Z,10.70
2022-09-20T21:39:51.706Z,10.76
2022-09-20T21:44:53.146Z,10.71
2022-09-20T21:49:54.968Z,10.62
2022-09-20T21:54:56.362Z,10.74
2022-09-20T21:59:57.755Z,10.62
2022-09-20T22:04:59.139Z,10.51
2022-09-20T22:10:00.531Z,10.45
2022-09-20T22:15:01.947Z,10.45
2022-09-20T22:20:04.372Z,10.40
2022-09-20T22:25:06.273Z,10.33
2022-09-20T22:30:08.376Z,10.38
2022-09-20T22:35:10.184Z,10.32
2022-09-20T22:40:11.724Z,10.34
2022-09-20T22:45:13.312Z,10.24
2022-09-20T22:50:14.821Z,10.24
2022-09-20T22:55:16.265Z,10.25
2022-09-20T23:00:17.756Z,10.37
2022-09-20T23:05:19.224Z,10.26
2022-09-20T23:10:20.675Z,10.25
2022-09-20T23:15:22.147Z,10.30
2022-09-20T23:20:23.544Z,10.23
2022-09-20T23:25:24.959Z,10.27
2022-09-20T23:30:26.376Z,10.19
2022-09-20T23:35:27.820Z,10.09
2022-09-20T23:40:29.628Z,9.98
2022-09-20T23:45:31.147Z,10.00
2022-09-20T23:50:32.684Z,10.02
2022-09-20T23:55:34.192Z,10.04
